sensor_id;sensor_type;location;lat;lon;timestamp;P1;durP1;ratioP1;P2;durP2;ratioP2
37805;SDS011;25082;50.870;0.022;2023-06-10T00:01:44;9.70;;;7.40;;
37805;SDS011;25082;50.870;0.022;2023-06-10T00:04:12;13.07;;;8.75;;
37805;SDS011;25082;50.870;0.022;2023-06-10T00:06:44;11.30;;;7.80;;
37805;SDS011;25082;50.870;0.022;2023-06-10T00:09:10;11.00;;;7.93;;
37805;SDS011;25082;50.870;0.022;2023-06-10T00:11:39;10.63;;;7.78;;
37805;SDS011;25082;50.870;0.022;2023-06-10T00:14:05;11.20;;;8.20;;
37805;SDS011;25082;50.870;0.022;2023-06-10T00:16:30;10.63;;;7.97;;
37805;SDS011;25082;50.870;0.022;2023-06-10T00:18:56;9.68;;;7.47;;
37805;SDS011;25082;50.870;0.022;2023-06-10T00:21:29;10.57;;;7.43;;
37805;SDS011;25082;50.870;0.022;2023-06-10T00:23:55;11.63;;;8.10;;
37805;SDS011;25082;50.870;0.022;2023-06-10T00:26:21;11.63;;;8.10;;
37805;SDS011;25082;50.870;0.022;2023-06-10T00:28:48;9.85;;;7.80;;
37805;SDS011;25082;50.870;0.022;2023-06-10T00:31:14;13.57;;;8.27;;
37805;SDS011;25082;50.870;0.022;2023-06-10T00:33:41;13.48;;;8.35;;
37805;SDS011;25082;50.870;0.022;2023-06-10T00:36:06;11.88;;;8.05;;
37805;SDS011;25082;50.870;0.022;2023-06-10T00:38:32;10.27;;;7.78;;
37805;SDS011;25082;50.870;0.022;2023-06-10T00:40:58;9.93;;;6.90;;
37805;SDS011;25082;50.870;0.022;2023-06-10T00:43:24;11.93;;;7.35;;
37805;SDS011;25082;50.870;0.022;2023-06-10T00:45:50;10.40;;;7.43;;
37805;SDS011;25082;50.870;0.022;2023-06-10T00:48:17;11.05;;;7.43;;
37805;SDS011;25082;50.870;0.022;2023-06-10T00:50:43;11.82;;;7.88;;
37805;SDS011;25082;50.870;0.022;2023-06-10T00:53:11;9.05;;;7.22;;
37805;SDS011;25082;50.870;0.022;2023-06-10T00:55:37;10.60;;;7.47;;
37805;SDS011;25082;50.870;0.022;2023-06-10T00:58:03;11.65;;;7.57;;
37805;SDS011;25082;50.870;0.022;2023-06-10T01:00:29;12.55;;;7.50;;
37805;SDS011;25082;50.870;0.022;2023-06-10T01:02:55;10.18;;;7.63;;
37805;SDS011;25082;50.870;0.022;2023-06-10T01:05:22;10.13;;;7.63;;
37805;SDS011;25082;50.870;0.022;2023-06-10T01:10:20;9.48;;;7.13;;
37805;SDS011;25082;50.870;0.022;2023-06-10T01:13:00;13.23;;;7.45;;
37805;SDS011;25082;50.870;0.022;2023-06-10T01:15:31;10.85;;;7.85;;
37805;SDS011;25082;50.870;0.022;2023-06-10T01:20:25;9.55;;;6.97;;
37805;SDS011;25082;50.870;0.022;2023-06-10T01:22:53;12.23;;;7.78;;
37805;SDS011;25082;50.870;0.022;2023-06-10T01:25:20;11.38;;;6.93;;
37805;SDS011;25082;50.870;0.022;2023-06-10T01:27:53;11.45;;;7.05;;
37805;SDS011;25082;50.870;0.022;2023-06-10T01:30:30;15.02;;;7.28;;
37805;SDS011;25082;50.870;0.022;2023-06-10T01:33:05;10.27;;;7.30;;
37805;SDS011;25082;50.870;0.022;2023-06-10T01:35:34;8.50;;;6.93;;
37805;SDS011;25082;50.870;0.022;2023-06-10T01:38:03;8.07;;;6.60;;
37805;SDS011;25082;50.870;0.022;2023-06-10T01:40:29;10.35;;;7.50;;
37805;SDS011;25082;50.870;0.022;2023-06-10T01:42:56;9.40;;;7.30;;
37805;SDS011;25082;50.870;0.022;2023-06-10T01:45:21;9.07;;;6.78;;
37805;SDS011;25082;50.870;0.022;2023-06-10T01:47:47;11.70;;;7.60;;
37805;SDS011;25082;50.870;0.022;2023-06-10T01:50:13;10.80;;;7.28;;
37805;SDS011;25082;50.870;0.022;2023-06-10T01:52:39;9.88;;;7.45;;
37805;SDS011;25082;50.870;0.022;2023-06-10T01:55:05;9.98;;;7.55;;
37805;SDS011;25082;50.870;0.022;2023-06-10T01:57:31;11.48;;;7.25;;
37805;SDS011;25082;50.870;0.022;2023-06-10T01:59:56;8.93;;;7.40;;
37805;SDS011;25082;50.870;0.022;2023-06-10T02:02:22;9.43;;;6.97;;
37805;SDS011;25082;50.870;0.022;2023-06-10T02:04:48;10.38;;;7.45;;
37805;SDS011;25082;50.870;0.022;2023-06-10T02:07:14;8.52;;;6.65;;
37805;SDS011;25082;50.870;0.022;2023-06-10T02:09:40;11.98;;;7.03;;
37805;SDS011;25082;50.870;0.022;2023-06-10T02:12:06;12.82;;;7.72;;
37805;SDS011;25082;50.870;0.022;2023-06-10T02:14:32;9.27;;;7.25;;
37805;SDS011;25082;50.870;0.022;2023-06-10T02:16:58;10.70;;;7.38;;
37805;SDS011;25082;50.870;0.022;2023-06-10T02:19:24;11.98;;;7.07;;
37805;SDS011;25082;50.870;0.022;2023-06-10T02:21:51;11.95;;;7.57;;
37805;SDS011;25082;50.870;0.022;2023-06-10T02:24:17;10.38;;;7.10;;
37805;SDS011;25082;50.870;0.022;2023-06-10T02:26:43;12.57;;;7.45;;
37805;SDS011;25082;50.870;0.022;2023-06-10T02:29:09;10.73;;;7.25;;
37805;SDS011;25082;50.870;0.022;2023-06-10T02:31:35;7.97;;;6.68;;
37805;SDS011;25082;50.870;0.022;2023-06-10T02:34:01;11.48;;;7.50;;
37805;SDS011;25082;50.870;0.022;2023-06-10T02:36:28;11.63;;;6.80;;
37805;SDS011;25082;50.870;0.022;2023-06-10T02:38:53;8.65;;;6.85;;
37805;SDS011;25082;50.870;0.022;2023-06-10T02:41:19;12.50;;;7.43;;
37805;SDS011;25082;50.870;0.022;2023-06-10T02:43:46;9.90;;;6.78;;
37805;SDS011;25082;50.870;0.022;2023-06-10T02:46:12;8.07;;;6.78;;
37805;SDS011;25082;50.870;0.022;2023-06-10T02:48:45;8.73;;;6.68;;
37805;SDS011;25082;50.870;0.022;2023-06-10T02:51:11;9.00;;;6.97;;
37805;SDS011;25082;50.870;0.022;2023-06-10T02:53:37;11.52;;;7.28;;
37805;SDS011;25082;50.870;0.022;2023-06-10T02:56:03;10.60;;;7.13;;
37805;SDS011;25082;50.870;0.022;2023-06-10T02:58:29;10.93;;;7.82;;
37805;SDS011;25082;50.870;0.022;2023-06-10T03:00:55;10.48;;;6.75;;
37805;SDS011;25082;50.870;0.022;2023-06-10T03:03:21;9.15;;;6.55;;
37805;SDS011;25082;50.870;0.022;2023-06-10T03:05:47;9.98;;;6.93;;
37805;SDS011;25082;50.870;0.022;2023-06-10T03:08:13;10.50;;;6.60;;
37805;SDS011;25082;50.870;0.022;2023-06-10T03:10:39;10.88;;;6.68;;
37805;SDS011;25082;50.870;0.022;2023-06-10T03:13:05;9.25;;;6.72;;
37805;SDS011;25082;50.870;0.022;2023-06-10T03:15:31;14.30;;;7.72;;
37805;SDS011;25082;50.870;0.022;2023-06-10T03:17:59;11.55;;;6.75;;
37805;SDS011;25082;50.870;0.022;2023-06-10T03:20:25;10.40;;;7.20;;
37805;SDS011;25082;50.870;0.022;2023-06-10T03:22:52;10.18;;;7.15;;
37805;SDS011;25082;50.870;0.022;2023-06-10T03:25:18;7.38;;;6.00;;
37805;SDS011;25082;50.870;0.022;2023-06-10T03:27:45;8.60;;;6.78;;
37805;SDS011;25082;50.870;0.022;2023-06-10T03:30:12;10.38;;;6.88;;
37805;SDS011;25082;50.870;0.022;2023-06-10T03:32:38;10.07;;;7.18;;
37805;SDS011;25082;50.870;0.022;2023-06-10T03:35:06;10.27;;;7.20;;
37805;SDS011;25082;50.870;0.022;2023-06-10T03:37:32;9.98;;;6.75;;
37805;SDS011;25082;50.870;0.022;2023-06-10T03:39:58;9.95;;;6.80;;
37805;SDS011;25082;50.870;0.022;2023-06-10T03:42:24;11.57;;;7.25;;
37805;SDS011;25082;50.870;0.022;2023-06-10T03:44:50;10.18;;;7.13;;
37805;SDS011;25082;50.870;0.022;2023-06-10T03:47:15;9.68;;;6.28;;
37805;SDS011;25082;50.870;0.022;2023-06-10T03:49:41;11.73;;;6.90;;
37805;SDS011;25082;50.870;0.022;2023-06-10T03:52:07;10.20;;;6.57;;
37805;SDS011;25082;50.870;0.022;2023-06-10T03:54:33;8.48;;;6.60;;
37805;SDS011;25082;50.870;0.022;2023-06-10T03:57:01;11.73;;;7.35;;
37805;SDS011;25082;50.870;0.022;2023-06-10T03:59:28;9.60;;;6.63;;
37805;SDS011;25082;50.870;0.022;2023-06-10T04:01:54;8.40;;;6.53;;
37805;SDS011;25082;50.870;0.022;2023-06-10T04:04:20;11.82;;;7.32;;
37805;SDS011;25082;50.870;0.022;2023-06-10T04:06:45;9.07;;;6.80;;
37805;SDS011;25082;50.870;0.022;2023-06-10T04:09:12;11.75;;;7.00;;
37805;SDS011;25082;50.870;0.022;2023-06-10T04:11:37;12.10;;;7.65;;
37805;SDS011;25082;50.870;0.022;2023-06-10T04:14:03;10.40;;;7.07;;
37805;SDS011;25082;50.870;0.022;2023-06-10T04:16:29;10.07;;;6.50;;
37805;SDS011;25082;50.870;0.022;2023-06-10T04:18:55;10.05;;;6.57;;
37805;SDS011;25082;50.870;0.022;2023-06-10T04:21:20;11.25;;;7.30;;
37805;SDS011;25082;50.870;0.022;2023-06-10T04:23:47;8.95;;;6.68;;
37805;SDS011;25082;50.870;0.022;2023-06-10T04:26:13;10.10;;;7.15;;
37805;SDS011;25082;50.870;0.022;2023-06-10T04:28:39;10.57;;;6.57;;
37805;SDS011;25082;50.870;0.022;2023-06-10T04:31:05;8.93;;;6.80;;
37805;SDS011;25082;50.870;0.022;2023-06-10T04:33:31;10.95;;;6.95;;
37805;SDS011;25082;50.870;0.022;2023-06-10T04:35:56;12.55;;;6.88;;
37805;SDS011;25082;50.870;0.022;2023-06-10T04:38:22;8.90;;;6.50;;
37805;SDS011;25082;50.870;0.022;2023-06-10T04:40:48;12.70;;;7.00;;
37805;SDS011;25082;50.870;0.022;2023-06-10T04:43:14;10.85;;;6.32;;
37805;SDS011;25082;50.870;0.022;2023-06-10T04:45:41;10.38;;;6.78;;
37805;SDS011;25082;50.870;0.022;2023-06-10T04:48:10;15.60;;;7.03;;
37805;SDS011;25082;50.870;0.022;2023-06-10T04:50:36;8.98;;;6.43;;
37805;SDS011;25082;50.870;0.022;2023-06-10T04:53:02;13.82;;;7.43;;
37805;SDS011;25082;50.870;0.022;2023-06-10T04:55:28;11.35;;;6.35;;
37805;SDS011;25082;50.870;0.022;2023-06-10T04:57:54;11.18;;;6.55;;
37805;SDS011;25082;50.870;0.022;2023-06-10T05:00:20;11.88;;;7.38;;
37805;SDS011;25082;50.870;0.022;2023-06-10T05:02:46;10.77;;;6.50;;
37805;SDS011;25082;50.870;0.022;2023-06-10T05:05:16;10.77;;;7.30;;
37805;SDS011;25082;50.870;0.022;2023-06-10T05:07:43;7.47;;;5.13;;
37805;SDS011;25082;50.870;0.022;2023-06-10T05:10:08;10.05;;;6.70;;
37805;SDS011;25082;50.870;0.022;2023-06-10T05:12:34;10.75;;;6.63;;
37805;SDS011;25082;50.870;0.022;2023-06-10T05:15:00;9.55;;;6.03;;
37805;SDS011;25082;50.870;0.022;2023-06-10T05:17:27;8.50;;;6.57;;
37805;SDS011;25082;50.870;0.022;2023-06-10T05:19:53;8.55;;;6.05;;
37805;SDS011;25082;50.870;0.022;2023-06-10T05:22:19;8.65;;;6.22;;
37805;SDS011;25082;50.870;0.022;2023-06-10T05:24:45;13.20;;;6.95;;
37805;SDS011;25082;50.870;0.022;2023-06-10T05:27:10;11.68;;;6.50;;
37805;SDS011;25082;50.870;0.022;2023-06-10T05:29:36;9.85;;;6.32;;
37805;SDS011;25082;50.870;0.022;2023-06-10T05:32:02;11.20;;;6.78;;
37805;SDS011;25082;50.870;0.022;2023-06-10T05:34:29;8.20;;;5.90;;
37805;SDS011;25082;50.870;0.022;2023-06-10T05:36:55;11.23;;;6.65;;
37805;SDS011;25082;50.870;0.022;2023-06-10T05:39:20;10.75;;;6.47;;
37805;SDS011;25082;50.870;0.022;2023-06-10T05:41:46;8.52;;;6.05;;
37805;SDS011;25082;50.870;0.022;2023-06-10T05:44:12;8.25;;;5.55;;
37805;SDS011;25082;50.870;0.022;2023-06-10T05:46:38;9.20;;;6.30;;
37805;SDS011;25082;50.870;0.022;2023-06-10T05:49:03;8.88;;;6.10;;
37805;SDS011;25082;50.870;0.022;2023-06-10T05:51:29;8.50;;;6.10;;
37805;SDS011;25082;50.870;0.022;2023-06-10T05:53:55;10.77;;;6.10;;
37805;SDS011;25082;50.870;0.022;2023-06-10T05:56:20;9.55;;;6.25;;
37805;SDS011;25082;50.870;0.022;2023-06-10T05:58:47;8.07;;;5.97;;
37805;SDS011;25082;50.870;0.022;2023-06-10T06:01:13;8.73;;;6.03;;
37805;SDS011;25082;50.870;0.022;2023-06-10T06:03:40;9.35;;;6.28;;
37805;SDS011;25082;50.870;0.022;2023-06-10T06:06:06;10.90;;;6.25;;
37805;SDS011;25082;50.870;0.022;2023-06-10T06:08:31;7.90;;;6.13;;
37805;SDS011;25082;50.870;0.022;2023-06-10T06:10:57;12.00;;;6.35;;
37805;SDS011;25082;50.870;0.022;2023-06-10T06:13:23;12.32;;;6.38;;
37805;SDS011;25082;50.870;0.022;2023-06-10T06:15:49;10.55;;;6.20;;
37805;SDS011;25082;50.870;0.022;2023-06-10T06:18:15;7.95;;;5.97;;
37805;SDS011;25082;50.870;0.022;2023-06-10T06:20:41;9.90;;;6.63;;
37805;SDS011;25082;50.870;0.022;2023-06-10T06:23:07;9.43;;;6.07;;
37805;SDS011;25082;50.870;0.022;2023-06-10T06:25:36;11.07;;;6.25;;
37805;SDS011;25082;50.870;0.022;2023-06-10T06:28:05;7.95;;;6.00;;
37805;SDS011;25082;50.870;0.022;2023-06-10T06:30:32;9.98;;;6.90;;
37805;SDS011;25082;50.870;0.022;2023-06-10T06:32:58;10.07;;;6.47;;
37805;SDS011;25082;50.870;0.022;2023-06-10T06:35:24;7.97;;;6.25;;
37805;SDS011;25082;50.870;0.022;2023-06-10T06:37:49;10.50;;;6.80;;
37805;SDS011;25082;50.870;0.022;2023-06-10T06:40:15;9.85;;;6.18;;
37805;SDS011;25082;50.870;0.022;2023-06-10T06:42:41;11.63;;;6.10;;
37805;SDS011;25082;50.870;0.022;2023-06-10T06:45:07;11.10;;;6.07;;
37805;SDS011;25082;50.870;0.022;2023-06-10T06:47:33;7.90;;;5.93;;
37805;SDS011;25082;50.870;0.022;2023-06-10T06:49:58;11.35;;;6.03;;
37805;SDS011;25082;50.870;0.022;2023-06-10T06:52:24;9.20;;;6.78;;
37805;SDS011;25082;50.870;0.022;2023-06-10T06:54:50;9.43;;;6.15;;
37805;SDS011;25082;50.870;0.022;2023-06-10T06:57:16;8.75;;;6.18;;
37805;SDS011;25082;50.870;0.022;2023-06-10T06:59:42;10.10;;;6.47;;
37805;SDS011;25082;50.870;0.022;2023-06-10T07:02:07;7.65;;;5.63;;
37805;SDS011;25082;50.870;0.022;2023-06-10T07:04:33;8.93;;;6.50;;
37805;SDS011;25082;50.870;0.022;2023-06-10T07:06:59;8.98;;;6.07;;
37805;SDS011;25082;50.870;0.022;2023-06-10T07:09:25;9.98;;;6.38;;
37805;SDS011;25082;50.870;0.022;2023-06-10T07:11:50;10.23;;;5.90;;
37805;SDS011;25082;50.870;0.022;2023-06-10T07:14:16;8.60;;;6.43;;
37805;SDS011;25082;50.870;0.022;2023-06-10T07:16:42;8.98;;;6.07;;
37805;SDS011;25082;50.870;0.022;2023-06-10T07:19:10;11.18;;;5.90;;
37805;SDS011;25082;50.870;0.022;2023-06-10T07:21:35;10.32;;;6.22;;
37805;SDS011;25082;50.870;0.022;2023-06-10T07:24:03;10.75;;;5.93;;
37805;SDS011;25082;50.870;0.022;2023-06-10T07:26:29;7.85;;;5.50;;
37805;SDS011;25082;50.870;0.022;2023-06-10T07:28:55;10.38;;;7.30;;
37805;SDS011;25082;50.870;0.022;2023-06-10T07:31:20;8.15;;;5.40;;
37805;SDS011;25082;50.870;0.022;2023-06-10T07:33:46;8.63;;;5.53;;
37805;SDS011;25082;50.870;0.022;2023-06-10T07:36:12;8.70;;;6.07;;
37805;SDS011;25082;50.870;0.022;2023-06-10T07:38:38;6.95;;;5.53;;
37805;SDS011;25082;50.870;0.022;2023-06-10T07:41:04;8.52;;;5.32;;
37805;SDS011;25082;50.870;0.022;2023-06-10T07:43:29;9.85;;;6.32;;
37805;SDS011;25082;50.870;0.022;2023-06-10T07:45:55;9.40;;;6.10;;
37805;SDS011;25082;50.870;0.022;2023-06-10T07:48:21;10.02;;;6.15;;
37805;SDS011;25082;50.870;0.022;2023-06-10T07:50:46;6.63;;;5.80;;
37805;SDS011;25082;50.870;0.022;2023-06-10T07:53:12;8.40;;;5.43;;
37805;SDS011;25082;50.870;0.022;2023-06-10T07:55:38;9.82;;;5.63;;
37805;SDS011;25082;50.870;0.022;2023-06-10T07:58:04;7.13;;;5.85;;
37805;SDS011;25082;50.870;0.022;2023-06-10T08:00:29;7.82;;;5.50;;
37805;SDS011;25082;50.870;0.022;2023-06-10T08:02:55;8.35;;;5.30;;
37805;SDS011;25082;50.870;0.022;2023-06-10T08:05:21;8.45;;;5.60;;
37805;SDS011;25082;50.870;0.022;2023-06-10T08:07:47;7.47;;;5.30;;
37805;SDS011;25082;50.870;0.022;2023-06-10T08:10:12;8.77;;;5.20;;
37805;SDS011;25082;50.870;0.022;2023-06-10T08:12:38;7.97;;;5.60;;
37805;SDS011;25082;50.870;0.022;2023-06-10T08:15:04;7.72;;;5.65;;
37805;SDS011;25082;50.870;0.022;2023-06-10T08:17:30;7.25;;;5.50;;
37805;SDS011;25082;50.870;0.022;2023-06-10T08:19:56;7.43;;;5.60;;
37805;SDS011;25082;50.870;0.022;2023-06-10T08:22:22;7.57;;;5.78;;
37805;SDS011;25082;50.870;0.022;2023-06-10T08:24:48;8.18;;;5.32;;
37805;SDS011;25082;50.870;0.022;2023-06-10T08:27:13;6.97;;;4.93;;
37805;SDS011;25082;50.870;0.022;2023-06-10T08:29:39;9.05;;;6.18;;
37805;SDS011;25082;50.870;0.022;2023-06-10T08:32:05;8.77;;;5.88;;
37805;SDS011;25082;50.870;0.022;2023-06-10T08:34:34;7.18;;;5.57;;
37805;SDS011;25082;50.870;0.022;2023-06-10T08:37:01;9.35;;;5.72;;
37805;SDS011;25082;50.870;0.022;2023-06-10T08:39:27;7.63;;;5.15;;
37805;SDS011;25082;50.870;0.022;2023-06-10T08:42:01;6.68;;;5.28;;
37805;SDS011;25082;50.870;0.022;2023-06-10T08:44:29;7.30;;;5.72;;
37805;SDS011;25082;50.870;0.022;2023-06-10T08:47:01;8.18;;;5.50;;
37805;SDS011;25082;50.870;0.022;2023-06-10T08:49:50;5.97;;;4.93;;
37805;SDS011;25082;50.870;0.022;2023-06-10T08:52:19;6.95;;;5.68;;
37805;SDS011;25082;50.870;0.022;2023-06-10T08:54:52;8.27;;;5.55;;
37805;SDS011;25082;50.870;0.022;2023-06-10T08:57:21;7.32;;;5.18;;
37805;SDS011;25082;50.870;0.022;2023-06-10T08:59:48;8.27;;;5.40;;
37805;SDS011;25082;50.870;0.022;2023-06-10T09:02:15;7.07;;;5.75;;
37805;SDS011;25082;50.870;0.022;2023-06-10T09:04:44;10.77;;;5.72;;
37805;SDS011;25082;50.870;0.022;2023-06-10T09:07:13;8.55;;;6.00;;
37805;SDS011;25082;50.870;0.022;2023-06-10T09:09:41;11.02;;;6.03;;
37805;SDS011;25082;50.870;0.022;2023-06-10T09:12:08;11.43;;;7.10;;
37805;SDS011;25082;50.870;0.022;2023-06-10T09:14:34;17.27;;;8.15;;
37805;SDS011;25082;50.870;0.022;2023-06-10T09:17:01;16.60;;;8.85;;
37805;SDS011;25082;50.870;0.022;2023-06-10T09:19:27;18.80;;;9.02;;
37805;SDS011;25082;50.870;0.022;2023-06-10T09:21:54;13.73;;;9.13;;
37805;SDS011;25082;50.870;0.022;2023-06-10T09:24:22;15.38;;;9.60;;
37805;SDS011;25082;50.870;0.022;2023-06-10T09:26:49;17.85;;;9.30;;
37805;SDS011;25082;50.870;0.022;2023-06-10T09:29:16;18.15;;;9.45;;
37805;SDS011;25082;50.870;0.022;2023-06-10T09:31:42;14.35;;;9.80;;
37805;SDS011;25082;50.870;0.022;2023-06-10T09:34:10;14.52;;;10.48;;
37805;SDS011;25082;50.870;0.022;2023-06-10T09:36:37;14.30;;;10.45;;
37805;SDS011;25082;50.870;0.022;2023-06-10T09:39:04;14.40;;;10.48;;
37805;SDS011;25082;50.870;0.022;2023-06-10T09:41:33;15.80;;;9.80;;
37805;SDS011;25082;50.870;0.022;2023-06-10T09:44:11;14.35;;;9.20;;
37805;SDS011;25082;50.870;0.022;2023-06-10T09:46:38;16.42;;;10.27;;
37805;SDS011;25082;50.870;0.022;2023-06-10T09:49:04;13.25;;;10.07;;
37805;SDS011;25082;50.870;0.022;2023-06-10T09:51:29;15.68;;;10.35;;
37805;SDS011;25082;50.870;0.022;2023-06-10T09:53:55;11.63;;;8.57;;
37805;SDS011;25082;50.870;0.022;2023-06-10T09:56:21;13.23;;;9.75;;
37805;SDS011;25082;50.870;0.022;2023-06-10T09:58:59;15.50;;;9.57;;
37805;SDS011;25082;50.870;0.022;2023-06-10T10:01:25;11.85;;;9.07;;
37805;SDS011;25082;50.870;0.022;2023-06-10T10:03:50;17.88;;;9.40;;
37805;SDS011;25082;50.870;0.022;2023-06-10T10:06:17;17.80;;;9.88;;
37805;SDS011;25082;50.870;0.022;2023-06-10T10:08:47;12.60;;;9.60;;
37805;SDS011;25082;50.870;0.022;2023-06-10T10:11:16;11.90;;;9.10;;
37805;SDS011;25082;50.870;0.022;2023-06-10T10:13:43;13.95;;;9.50;;
37805;SDS011;25082;50.870;0.022;2023-06-10T10:16:20;10.93;;;8.55;;
37805;SDS011;25082;50.870;0.022;2023-06-10T10:18:55;17.55;;;9.68;;
37805;SDS011;25082;50.870;0.022;2023-06-10T10:21:25;22.55;;;9.18;;
37805;SDS011;25082;50.870;0.022;2023-06-10T10:24:01;14.55;;;9.27;;
37805;SDS011;25082;50.870;0.022;2023-06-10T10:26:33;11.55;;;9.40;;
37805;SDS011;25082;50.870;0.022;2023-06-10T10:29:11;11.18;;;9.65;;
37805;SDS011;25082;50.870;0.022;2023-06-10T10:31:53;11.77;;;10.05;;
37805;SDS011;25082;50.870;0.022;2023-06-10T10:34:24;11.57;;;9.98;;
37805;SDS011;25082;50.870;0.022;2023-06-10T10:37:09;10.93;;;9.60;;
37805;SDS011;25082;50.870;0.022;2023-06-10T10:39:35;20.70;;;10.40;;
37805;SDS011;25082;50.870;0.022;2023-06-10T10:42:01;9.63;;;8.48;;
37805;SDS011;25082;50.870;0.022;2023-06-10T10:44:29;11.90;;;9.32;;
37805;SDS011;25082;50.870;0.022;2023-06-10T10:46:55;12.15;;;9.45;;
37805;SDS011;25082;50.870;0.022;2023-06-10T10:49:23;10.65;;;9.02;;
37805;SDS011;25082;50.870;0.022;2023-06-10T10:51:54;9.57;;;8.02;;
37805;SDS011;25082;50.870;0.022;2023-06-10T10:54:31;9.52;;;8.02;;
37805;SDS011;25082;50.870;0.022;2023-06-10T10:59:44;10.68;;;8.40;;
37805;SDS011;25082;50.870;0.022;2023-06-10T11:02:15;10.02;;;8.55;;
37805;SDS011;25082;50.870;0.022;2023-06-10T11:04:44;15.70;;;9.27;;
37805;SDS011;25082;50.870;0.022;2023-06-10T11:07:13;12.60;;;9.30;;
37805;SDS011;25082;50.870;0.022;2023-06-10T11:09:58;11.32;;;9.73;;
37805;SDS011;25082;50.870;0.022;2023-06-10T11:15:12;10.90;;;9.13;;
37805;SDS011;25082;50.870;0.022;2023-06-10T11:20:43;12.82;;;8.80;;
37805;SDS011;25082;50.870;0.022;2023-06-10T11:31:20;16.55;;;9.85;;
37805;SDS011;25082;50.870;0.022;2023-06-10T11:33:48;14.93;;;9.25;;
37805;SDS011;25082;50.870;0.022;2023-06-10T11:36:24;13.40;;;9.73;;
37805;SDS011;25082;50.870;0.022;2023-06-10T11:38:55;12.02;;;10.07;;
37805;SDS011;25082;50.870;0.022;2023-06-10T11:41:25;15.65;;;10.82;;
37805;SDS011;25082;50.870;0.022;2023-06-10T11:43:52;10.73;;;9.07;;
37805;SDS011;25082;50.870;0.022;2023-06-10T11:46:22;11.63;;;9.18;;
37805;SDS011;25082;50.870;0.022;2023-06-10T11:48:51;18.20;;;8.90;;
37805;SDS011;25082;50.870;0.022;2023-06-10T11:51:18;16.48;;;9.70;;
37805;SDS011;25082;50.870;0.022;2023-06-10T11:53:47;11.30;;;9.25;;
37805;SDS011;25082;50.870;0.022;2023-06-10T11:56:19;10.18;;;9.10;;
37805;SDS011;25082;50.870;0.022;2023-06-10T11:58:45;12.80;;;9.45;;
37805;SDS011;25082;50.870;0.022;2023-06-10T12:01:23;12.77;;;9.57;;
37805;SDS011;25082;50.870;0.022;2023-06-10T12:03:56;10.73;;;8.80;;
37805;SDS011;25082;50.870;0.022;2023-06-10T12:09:15;9.88;;;8.88;;
37805;SDS011;25082;50.870;0.022;2023-06-10T12:11:42;10.13;;;8.38;;
37805;SDS011;25082;50.870;0.022;2023-06-10T12:14:08;13.10;;;8.95;;
37805;SDS011;25082;50.870;0.022;2023-06-10T12:16:34;10.68;;;8.60;;
37805;SDS011;25082;50.870;0.022;2023-06-10T12:19:01;10.40;;;8.80;;
37805;SDS011;25082;50.870;0.022;2023-06-10T12:21:28;11.82;;;8.82;;
37805;SDS011;25082;50.870;0.022;2023-06-10T12:24:04;12.68;;;9.00;;
37805;SDS011;25082;50.870;0.022;2023-06-10T12:26:37;13.00;;;8.90;;
37805;SDS011;25082;50.870;0.022;2023-06-10T12:34:31;8.65;;;7.75;;
37805;SDS011;25082;50.870;0.022;2023-06-10T12:36:58;11.15;;;8.10;;
37805;SDS011;25082;50.870;0.022;2023-06-10T12:39:24;9.02;;;8.07;;
37805;SDS011;25082;50.870;0.022;2023-06-10T12:41:51;9.27;;;7.95;;
37805;SDS011;25082;50.870;0.022;2023-06-10T12:44:16;8.73;;;7.80;;
37805;SDS011;25082;50.870;0.022;2023-06-10T12:46:42;10.25;;;8.05;;
37805;SDS011;25082;50.870;0.022;2023-06-10T12:49:17;8.73;;;7.88;;
37805;SDS011;25082;50.870;0.022;2023-06-10T12:51:44;9.52;;;8.23;;
37805;SDS011;25082;50.870;0.022;2023-06-10T12:54:10;9.38;;;7.63;;
37805;SDS011;25082;50.870;0.022;2023-06-10T12:56:36;9.93;;;8.50;;
37805;SDS011;25082;50.870;0.022;2023-06-10T12:59:02;9.55;;;8.18;;
37805;SDS011;25082;50.870;0.022;2023-06-10T13:01:28;9.25;;;8.23;;
37805;SDS011;25082;50.870;0.022;2023-06-10T13:03:56;9.13;;;7.82;;
37805;SDS011;25082;50.870;0.022;2023-06-10T13:06:22;9.32;;;8.27;;
37805;SDS011;25082;50.870;0.022;2023-06-10T13:08:48;8.43;;;7.55;;
37805;SDS011;25082;50.870;0.022;2023-06-10T13:11:14;8.63;;;7.82;;
37805;SDS011;25082;50.870;0.022;2023-06-10T13:13:39;10.27;;;8.05;;
37805;SDS011;25082;50.870;0.022;2023-06-10T13:16:05;8.70;;;7.90;;
37805;SDS011;25082;50.870;0.022;2023-06-10T13:18:32;8.70;;;7.82;;
37805;SDS011;25082;50.870;0.022;2023-06-10T13:21:05;14.95;;;7.63;;
37805;SDS011;25082;50.870;0.022;2023-06-10T13:23:31;9.32;;;7.43;;
37805;SDS011;25082;50.870;0.022;2023-06-10T13:25:57;9.13;;;8.18;;
37805;SDS011;25082;50.870;0.022;2023-06-10T13:28:23;9.77;;;7.70;;
37805;SDS011;25082;50.870;0.022;2023-06-10T13:30:49;8.57;;;7.70;;
37805;SDS011;25082;50.870;0.022;2023-06-10T13:33:15;9.57;;;7.72;;
37805;SDS011;25082;50.870;0.022;2023-06-10T13:35:41;9.40;;;7.82;;
37805;SDS011;25082;50.870;0.022;2023-06-10T13:38:07;9.80;;;7.60;;
37805;SDS011;25082;50.870;0.022;2023-06-10T13:40:33;8.63;;;7.72;;
37805;SDS011;25082;50.870;0.022;2023-06-10T13:42:58;10.57;;;7.70;;
37805;SDS011;25082;50.870;0.022;2023-06-10T13:45:24;8.60;;;7.45;;
37805;SDS011;25082;50.870;0.022;2023-06-10T13:47:50;8.85;;;7.82;;
37805;SDS011;25082;50.870;0.022;2023-06-10T13:50:16;10.65;;;8.10;;
37805;SDS011;25082;50.870;0.022;2023-06-10T13:52:42;9.88;;;7.22;;
37805;SDS011;25082;50.870;0.022;2023-06-10T13:55:08;8.90;;;8.00;;
37805;SDS011;25082;50.870;0.022;2023-06-10T13:57:34;9.40;;;7.78;;
37805;SDS011;25082;50.870;0.022;2023-06-10T14:00:00;10.63;;;8.20;;
37805;SDS011;25082;50.870;0.022;2023-06-10T14:02:25;7.55;;;6.85;;
37805;SDS011;25082;50.870;0.022;2023-06-10T14:04:51;9.55;;;8.55;;
37805;SDS011;25082;50.870;0.022;2023-06-10T14:07:17;8.80;;;7.78;;
37805;SDS011;25082;50.870;0.022;2023-06-10T14:09:43;8.13;;;7.32;;
37805;SDS011;25082;50.870;0.022;2023-06-10T14:12:09;8.68;;;7.75;;
37805;SDS011;25082;50.870;0.022;2023-06-10T14:14:36;8.48;;;7.63;;
37805;SDS011;25082;50.870;0.022;2023-06-10T14:17:02;8.48;;;7.55;;
37805;SDS011;25082;50.870;0.022;2023-06-10T14:19:29;7.75;;;7.00;;
37805;SDS011;25082;50.870;0.022;2023-06-10T14:21:55;8.15;;;7.32;;
37805;SDS011;25082;50.870;0.022;2023-06-10T14:24:21;8.95;;;7.45;;
37805;SDS011;25082;50.870;0.022;2023-06-10T14:26:47;9.85;;;8.18;;
37805;SDS011;25082;50.870;0.022;2023-06-10T14:29:13;9.63;;;7.53;;
37805;SDS011;25082;50.870;0.022;2023-06-10T14:31:39;9.02;;;8.13;;
37805;SDS011;25082;50.870;0.022;2023-06-10T14:34:05;9.95;;;8.23;;
37805;SDS011;25082;50.870;0.022;2023-06-10T14:36:33;8.60;;;7.70;;
37805;SDS011;25082;50.870;0.022;2023-06-10T14:38:59;9.50;;;8.15;;
37805;SDS011;25082;50.870;0.022;2023-06-10T14:41:24;8.80;;;7.70;;
37805;SDS011;25082;50.870;0.022;2023-06-10T14:43:51;8.75;;;7.72;;
37805;SDS011;25082;50.870;0.022;2023-06-10T14:46:17;8.32;;;7.53;;
37805;SDS011;25082;50.870;0.022;2023-06-10T14:48:45;8.45;;;7.57;;
37805;SDS011;25082;50.870;0.022;2023-06-10T14:51:11;8.93;;;7.25;;
37805;SDS011;25082;50.870;0.022;2023-06-10T14:53:37;8.95;;;8.05;;
37805;SDS011;25082;50.870;0.022;2023-06-10T14:56:03;8.50;;;7.68;;
37805;SDS011;25082;50.870;0.022;2023-06-10T14:58:29;9.52;;;8.50;;
37805;SDS011;25082;50.870;0.022;2023-06-10T15:00:55;8.85;;;8.02;;
37805;SDS011;25082;50.870;0.022;2023-06-10T15:03:20;9.55;;;8.55;;
37805;SDS011;25082;50.870;0.022;2023-06-10T15:05:46;8.45;;;7.53;;
37805;SDS011;25082;50.870;0.022;2023-06-10T15:08:12;9.30;;;8.30;;
37805;SDS011;25082;50.870;0.022;2023-06-10T15:10:38;10.00;;;8.88;;